sensor_id;sensor_type;location;lat;lon;timestamp;P1;durP1;ratioP1;P2;durP2;ratioP2
7013;SDS011;3547;50.774;12.918;2024-01-11T00:01:37;19.20;;;10.63;;
7013;SDS011;3547;50.774;12.918;2024-01-11T00:04:03;19.30;;;10.83;;
7013;SDS011;3547;50.774;12.918;2024-01-11T00:06:29;21.10;;;10.90;;
7013;SDS011;3547;50.774;12.918;2024-01-11T00:08:55;21.97;;;11.43;;
7013;SDS011;3547;50.774;12.918;2024-01-11T00:11:22;19.50;;;10.60;;
7013;SDS011;3547;50.774;12.918;2024-01-11T00:13:48;20.63;;;10.30;;
7013;SDS011;3547;50.774;12.918;2024-01-11T00:16:14;20.07;;;11.13;;
7013;SDS011;3547;50.774;12.918;2024-01-11T00:18:40;19.00;;;11.27;;
7013;SDS011;3547;50.774;12.918;2024-01-11T00:21:06;20.90;;;11.43;;
7013;SDS011;3547;50.774;12.918;2024-01-11T00:23:33;21.13;;;10.93;;
7013;SDS011;3547;50.774;12.918;2024-01-11T00:25:59;20.67;;;11.60;;
7013;SDS011;3547;50.774;12.918;2024-01-11T00:28:25;17.80;;;10.80;;
7013;SDS011;3547;50.774;12.918;2024-01-11T00:30:51;17.07;;;9.93;;
7013;SDS011;3547;50.774;12.918;2024-01-11T00:33:17;20.43;;;11.50;;
7013;SDS011;3547;50.774;12.918;2024-01-11T00:35:43;20.90;;;11.60;;
7013;SDS011;3547;50.774;12.918;2024-01-11T00:38:10;22.60;;;11.67;;
7013;SDS011;3547;50.774;12.918;2024-01-11T00:40:36;25.20;;;12.80;;
7013;SDS011;3547;50.774;12.918;2024-01-11T00:43:02;22.87;;;12.33;;
7013;SDS011;3547;50.774;12.918;2024-01-11T00:45:28;18.67;;;11.37;;
7013;SDS011;3547;50.774;12.918;2024-01-11T00:47:54;27.17;;;13.07;;
7013;SDS011;3547;50.774;12.918;2024-01-11T00:50:20;22.60;;;11.67;;
7013;SDS011;3547;50.774;12.918;2024-01-11T00:52:46;24.33;;;13.17;;
7013;SDS011;3547;50.774;12.918;2024-01-11T00:55:14;22.00;;;12.43;;
7013;SDS011;3547;50.774;12.918;2024-01-11T00:57:41;24.67;;;12.60;;
7013;SDS011;3547;50.774;12.918;2024-01-11T01:00:09;22.53;;;11.87;;
7013;SDS011;3547;50.774;12.918;2024-01-11T01:02:39;18.77;;;11.50;;
7013;SDS011;3547;50.774;12.918;2024-01-11T01:05:05;21.23;;;12.73;;
7013;SDS011;3547;50.774;12.918;2024-01-11T01:07:32;21.73;;;11.63;;
7013;SDS011;3547;50.774;12.918;2024-01-11T01:09:58;21.03;;;11.10;;
7013;SDS011;3547;50.774;12.918;2024-01-11T01:12:24;23.73;;;12.67;;
7013;SDS011;3547;50.774;12.918;2024-01-11T01:14:51;25.17;;;12.97;;
7013;SDS011;3547;50.774;12.918;2024-01-11T01:17:17;26.83;;;13.57;;
7013;SDS011;3547;50.774;12.918;2024-01-11T01:19:44;22.73;;;12.90;;
7013;SDS011;3547;50.774;12.918;2024-01-11T01:22:10;24.43;;;12.67;;
7013;SDS011;3547;50.774;12.918;2024-01-11T01:24:36;23.17;;;13.03;;
7013;SDS011;3547;50.774;12.918;2024-01-11T01:27:02;28.50;;;13.07;;
7013;SDS011;3547;50.774;12.918;2024-01-11T01:29:29;25.70;;;12.70;;
7013;SDS011;3547;50.774;12.918;2024-01-11T01:31:55;21.93;;;12.53;;
7013;SDS011;3547;50.774;12.918;2024-01-11T01:34:21;21.17;;;11.17;;
7013;SDS011;3547;50.774;12.918;2024-01-11T01:36:47;29.40;;;13.00;;
7013;SDS011;3547;50.774;12.918;2024-01-11T01:39:13;28.33;;;13.87;;
7013;SDS011;3547;50.774;12.918;2024-01-11T01:41:39;25.70;;;13.90;;
7013;SDS011;3547;50.774;12.918;2024-01-11T01:44:05;27.43;;;14.90;;
7013;SDS011;3547;50.774;12.918;2024-01-11T01:46:32;27.20;;;13.43;;
7013;SDS011;3547;50.774;12.918;2024-01-11T01:48:59;26.73;;;14.47;;
7013;SDS011;3547;50.774;12.918;2024-01-11T01:51:26;25.77;;;12.73;;
7013;SDS011;3547;50.774;12.918;2024-01-11T01:53:55;25.27;;;13.53;;
7013;SDS011;3547;50.774;12.918;2024-01-11T01:56:23;24.63;;;12.37;;
7013;SDS011;3547;50.774;12.918;2024-01-11T01:58:50;24.63;;;12.47;;
7013;SDS011;3547;50.774;12.918;2024-01-11T02:01:18;29.67;;;12.43;;
7013;SDS011;3547;50.774;12.918;2024-01-11T02:03:46;26.07;;;12.63;;
7013;SDS011;3547;50.774;12.918;2024-01-11T02:06:16;27.13;;;12.57;;
7013;SDS011;3547;50.774;12.918;2024-01-11T02:08:47;22.13;;;12.90;;
7013;SDS011;3547;50.774;12.918;2024-01-11T02:11:14;23.33;;;12.97;;
7013;SDS011;3547;50.774;12.918;2024-01-11T02:13:41;22.40;;;13.07;;
7013;SDS011;3547;50.774;12.918;2024-01-11T02:16:07;25.23;;;13.20;;
7013;SDS011;3547;50.774;12.918;2024-01-11T02:18:33;21.83;;;12.17;;
7013;SDS011;3547;50.774;12.918;2024-01-11T02:21:00;24.90;;;12.37;;
7013;SDS011;3547;50.774;12.918;2024-01-11T02:23:29;24.77;;;13.43;;
7013;SDS011;3547;50.774;12.918;2024-01-11T02:25:56;22.40;;;12.30;;
7013;SDS011;3547;50.774;12.918;2024-01-11T02:28:22;23.80;;;13.30;;
7013;SDS011;3547;50.774;12.918;2024-01-11T02:30:48;23.53;;;12.43;;
7013;SDS011;3547;50.774;12.918;2024-01-11T02:33:14;26.10;;;12.67;;
7013;SDS011;3547;50.774;12.918;2024-01-11T02:39:04;20.93;;;12.00;;
7013;SDS011;3547;50.774;12.918;2024-01-11T02:41:32;25.13;;;12.20;;
7013;SDS011;3547;50.774;12.918;2024-01-11T02:43:58;22.13;;;12.33;;
7013;SDS011;3547;50.774;12.918;2024-01-11T02:46:26;21.07;;;13.07;;
7013;SDS011;3547;50.774;12.918;2024-01-11T02:48:52;25.53;;;13.73;;
7013;SDS011;3547;50.774;12.918;2024-01-11T02:51:18;25.67;;;12.67;;
7013;SDS011;3547;50.774;12.918;2024-01-11T02:53:44;22.80;;;12.70;;
7013;SDS011;3547;50.774;12.918;2024-01-11T02:56:10;23.60;;;11.63;;
7013;SDS011;3547;50.774;12.918;2024-01-11T02:58:36;27.17;;;13.43;;
7013;SDS011;3547;50.774;12.918;2024-01-11T03:01:02;24.70;;;13.33;;
7013;SDS011;3547;50.774;12.918;2024-01-11T03:03:29;28.13;;;13.63;;
7013;SDS011;3547;50.774;12.918;2024-01-11T03:05:55;20.80;;;11.10;;
7013;SDS011;3547;50.774;12.918;2024-01-11T03:08:21;22.70;;;11.17;;
7013;SDS011;3547;50.774;12.918;2024-01-11T03:10:47;22.60;;;12.40;;
7013;SDS011;3547;50.774;12.918;2024-01-11T03:13:13;26.97;;;13.93;;
7013;SDS011;3547;50.774;12.918;2024-01-11T03:15:39;26.40;;;14.30;;
7013;SDS011;3547;50.774;12.918;2024-01-11T03:18:06;26.97;;;14.57;;
7013;SDS011;3547;50.774;12.918;2024-01-11T03:20:32;27.87;;;13.87;;
7013;SDS011;3547;50.774;12.918;2024-01-11T03:22:58;27.97;;;14.50;;
7013;SDS011;3547;50.774;12.918;2024-01-11T03:25:24;25.20;;;14.27;;
7013;SDS011;3547;50.774;12.918;2024-01-11T03:27:50;22.23;;;12.20;;
7013;SDS011;3547;50.774;12.918;2024-01-11T03:30:16;24.77;;;12.70;;
7013;SDS011;3547;50.774;12.918;2024-01-11T03:32:43;26.30;;;13.03;;
7013;SDS011;3547;50.774;12.918;2024-01-11T03:35:09;26.27;;;12.27;;
7013;SDS011;3547;50.774;12.918;2024-01-11T03:37:35;21.73;;;11.60;;
7013;SDS011;3547;50.774;12.918;2024-01-11T03:40:03;23.93;;;13.43;;
7013;SDS011;3547;50.774;12.918;2024-01-11T03:42:30;21.10;;;11.97;;
7013;SDS011;3547;50.774;12.918;2024-01-11T03:44:56;21.60;;;11.57;;
7013;SDS011;3547;50.774;12.918;2024-01-11T03:47:23;21.80;;;12.13;;
7013;SDS011;3547;50.774;12.918;2024-01-11T03:49:49;27.57;;;12.70;;
7013;SDS011;3547;50.774;12.918;2024-01-11T03:52:15;24.17;;;13.40;;
7013;SDS011;3547;50.774;12.918;2024-01-11T03:54:41;23.43;;;12.93;;
7013;SDS011;3547;50.774;12.918;2024-01-11T03:57:07;21.80;;;12.33;;
7013;SDS011;3547;50.774;12.918;2024-01-11T03:59:33;21.73;;;12.20;;
7013;SDS011;3547;50.774;12.918;2024-01-11T04:02:00;25.10;;;12.43;;
7013;SDS011;3547;50.774;12.918;2024-01-11T04:04:26;22.60;;;12.03;;
7013;SDS011;3547;50.774;12.918;2024-01-11T04:06:52;22.80;;;12.17;;
7013;SDS011;3547;50.774;12.918;2024-01-11T04:09:19;22.50;;;12.17;;
7013;SDS011;3547;50.774;12.918;2024-01-11T04:11:46;25.33;;;13.67;;
7013;SDS011;3547;50.774;12.918;2024-01-11T04:14:12;25.87;;;12.93;;
7013;SDS011;3547;50.774;12.918;2024-01-11T04:16:41;23.50;;;12.33;;
7013;SDS011;3547;50.774;12.918;2024-01-11T04:19:08;22.10;;;11.03;;
7013;SDS011;3547;50.774;12.918;2024-01-11T04:21:35;25.30;;;13.27;;
7013;SDS011;3547;50.774;12.918;2024-01-11T04:24:04;25.50;;;13.33;;
7013;SDS011;3547;50.774;12.918;2024-01-11T04:26:33;24.83;;;12.87;;
7013;SDS011;3547;50.774;12.918;2024-01-11T04:28:59;24.93;;;13.47;;
7013;SDS011;3547;50.774;12.918;2024-01-11T04:31:26;27.20;;;13.07;;
7013;SDS011;3547;50.774;12.918;2024-01-11T04:33:53;23.30;;;12.47;;
7013;SDS011;3547;50.774;12.918;2024-01-11T04:36:19;25.60;;;14.33;;
7013;SDS011;3547;50.774;12.918;2024-01-11T04:38:45;21.57;;;12.90;;
7013;SDS011;3547;50.774;12.918;2024-01-11T04:41:11;25.73;;;12.97;;
7013;SDS011;3547;50.774;12.918;2024-01-11T04:43:38;25.23;;;13.43;;
7013;SDS011;3547;50.774;12.918;2024-01-11T04:46:18;20.50;;;11.40;;
7013;SDS011;3547;50.774;12.918;2024-01-11T04:48:48;19.37;;;9.73;;
7013;SDS011;3547;50.774;12.918;2024-01-11T04:51:16;21.50;;;11.60;;
7013;SDS011;3547;50.774;12.918;2024-01-11T04:53:43;25.53;;;12.90;;
7013;SDS011;3547;50.774;12.918;2024-01-11T04:56:11;23.20;;;12.27;;
7013;SDS011;3547;50.774;12.918;2024-01-11T04:58:39;27.00;;;13.53;;
7013;SDS011;3547;50.774;12.918;2024-01-11T05:01:06;26.37;;;15.73;;
7013;SDS011;3547;50.774;12.918;2024-01-11T05:03:36;21.77;;;12.57;;
7013;SDS011;3547;50.774;12.918;2024-01-11T05:06:03;24.43;;;13.03;;
7013;SDS011;3547;50.774;12.918;2024-01-11T05:08:29;26.67;;;13.43;;
7013;SDS011;3547;50.774;12.918;2024-01-11T05:10:55;25.90;;;14.20;;
7013;SDS011;3547;50.774;12.918;2024-01-11T05:13:21;23.33;;;13.30;;
7013;SDS011;3547;50.774;12.918;2024-01-11T05:15:47;27.20;;;13.87;;
7013;SDS011;3547;50.774;12.918;2024-01-11T05:18:14;22.90;;;12.73;;
7013;SDS011;3547;50.774;12.918;2024-01-11T05:20:40;29.43;;;13.53;;
7013;SDS011;3547;50.774;12.918;2024-01-11T05:23:06;25.87;;;13.10;;
7013;SDS011;3547;50.774;12.918;2024-01-11T05:25:32;26.10;;;13.63;;
7013;SDS011;3547;50.774;12.918;2024-01-11T05:27:59;27.57;;;14.07;;
7013;SDS011;3547;50.774;12.918;2024-01-11T05:30:26;20.20;;;12.63;;
7013;SDS011;3547;50.774;12.918;2024-01-11T05:32:53;24.40;;;12.77;;
7013;SDS011;3547;50.774;12.918;2024-01-11T05:35:20;26.37;;;12.73;;
7013;SDS011;3547;50.774;12.918;2024-01-11T05:37:49;22.97;;;11.83;;
7013;SDS011;3547;50.774;12.918;2024-01-11T05:40:16;21.77;;;11.80;;
7013;SDS011;3547;50.774;12.918;2024-01-11T05:42:42;26.93;;;12.40;;
7013;SDS011;3547;50.774;12.918;2024-01-11T05:45:08;24.60;;;13.83;;
7013;SDS011;3547;50.774;12.918;2024-01-11T05:47:34;24.00;;;12.70;;
7013;SDS011;3547;50.774;12.918;2024-01-11T05:50:01;25.80;;;13.30;;
7013;SDS011;3547;50.774;12.918;2024-01-11T05:52:27;22.70;;;12.57;;
7013;SDS011;3547;50.774;12.918;2024-01-11T05:54:53;23.27;;;12.07;;
7013;SDS011;3547;50.774;12.918;2024-01-11T05:57:19;25.50;;;13.50;;
7013;SDS011;3547;50.774;12.918;2024-01-11T05:59:46;28.57;;;14.00;;
7013;SDS011;3547;50.774;12.918;2024-01-11T06:02:12;30.07;;;15.93;;
7013;SDS011;3547;50.774;12.918;2024-01-11T06:04:42;26.30;;;13.47;;
7013;SDS011;3547;50.774;12.918;2024-01-11T06:07:08;25.40;;;13.90;;
7013;SDS011;3547;50.774;12.918;2024-01-11T06:09:35;27.50;;;15.63;;
7013;SDS011;3547;50.774;12.918;2024-01-11T06:12:02;29.53;;;14.60;;
7013;SDS011;3547;50.774;12.918;2024-01-11T06:14:28;28.50;;;14.20;;
7013;SDS011;3547;50.774;12.918;2024-01-11T06:16:54;32.53;;;15.33;;
7013;SDS011;3547;50.774;12.918;2024-01-11T06:19:20;29.33;;;16.07;;
7013;SDS011;3547;50.774;12.918;2024-01-11T06:21:53;29.90;;;17.00;;
7013;SDS011;3547;50.774;12.918;2024-01-11T06:24:22;38.13;;;17.60;;
7013;SDS011;3547;50.774;12.918;2024-01-11T06:26:49;35.47;;;18.13;;
7013;SDS011;3547;50.774;12.918;2024-01-11T06:29:15;29.33;;;16.33;;
7013;SDS011;3547;50.774;12.918;2024-01-11T06:31:41;28.73;;;16.83;;
7013;SDS011;3547;50.774;12.918;2024-01-11T06:34:07;29.63;;;16.37;;
7013;SDS011;3547;50.774;12.918;2024-01-11T06:36:33;31.00;;;16.40;;
7013;SDS011;3547;50.774;12.918;2024-01-11T06:38:59;32.27;;;17.37;;
7013;SDS011;3547;50.774;12.918;2024-01-11T06:41:26;27.70;;;14.73;;
7013;SDS011;3547;50.774;12.918;2024-01-11T06:43:52;28.97;;;14.83;;
7013;SDS011;3547;50.774;12.918;2024-01-11T06:46:19;29.23;;;16.07;;
7013;SDS011;3547;50.774;12.918;2024-01-11T06:48:47;34.17;;;18.80;;
7013;SDS011;3547;50.774;12.918;2024-01-11T06:51:23;32.80;;;16.50;;
7013;SDS011;3547;50.774;12.918;2024-01-11T06:53:49;28.67;;;14.53;;
7013;SDS011;3547;50.774;12.918;2024-01-11T06:56:16;32.63;;;16.93;;
7013;SDS011;3547;50.774;12.918;2024-01-11T06:58:43;29.53;;;16.00;;
7013;SDS011;3547;50.774;12.918;2024-01-11T07:01:10;28.73;;;15.37;;
7013;SDS011;3547;50.774;12.918;2024-01-11T07:03:37;25.40;;;14.60;;
7013;SDS011;3547;50.774;12.918;2024-01-11T07:06:03;29.93;;;15.10;;
7013;SDS011;3547;50.774;12.918;2024-01-11T07:08:30;25.50;;;15.07;;
7013;SDS011;3547;50.774;12.918;2024-01-11T07:10:58;27.50;;;15.37;;
7013;SDS011;3547;50.774;12.918;2024-01-11T07:13:28;29.30;;;16.03;;
7013;SDS011;3547;50.774;12.918;2024-01-11T07:15:55;29.63;;;16.73;;
7013;SDS011;3547;50.774;12.918;2024-01-11T07:18:22;31.40;;;16.23;;
7013;SDS011;3547;50.774;12.918;2024-01-11T07:20:50;31.00;;;17.30;;
7013;SDS011;3547;50.774;12.918;2024-01-11T07:23:16;28.43;;;16.13;;
7013;SDS011;3547;50.774;12.918;2024-01-11T07:25:42;28.03;;;15.20;;
7013;SDS011;3547;50.774;12.918;2024-01-11T07:28:08;35.53;;;17.30;;
7013;SDS011;3547;50.774;12.918;2024-01-11T07:30:35;35.47;;;17.43;;
7013;SDS011;3547;50.774;12.918;2024-01-11T07:33:01;32.40;;;16.47;;
7013;SDS011;3547;50.774;12.918;2024-01-11T07:35:27;33.60;;;16.57;;
7013;SDS011;3547;50.774;12.918;2024-01-11T07:37:53;38.87;;;18.47;;
7013;SDS011;3547;50.774;12.918;2024-01-11T07:40:20;35.73;;;17.63;;
7013;SDS011;3547;50.774;12.918;2024-01-11T07:42:46;28.93;;;16.53;;
7013;SDS011;3547;50.774;12.918;2024-01-11T07:45:12;36.90;;;18.73;;
7013;SDS011;3547;50.774;12.918;2024-01-11T07:47:39;31.07;;;16.27;;
7013;SDS011;3547;50.774;12.918;2024-01-11T07:50:06;33.70;;;17.83;;
7013;SDS011;3547;50.774;12.918;2024-01-11T07:52:35;34.10;;;17.77;;
7013;SDS011;3547;50.774;12.918;2024-01-11T07:55:02;35.30;;;18.40;;
7013;SDS011;3547;50.774;12.918;2024-01-11T07:57:33;59.13;;;27.40;;
7013;SDS011;3547;50.774;12.918;2024-01-11T08:00:00;44.70;;;25.30;;
7013;SDS011;3547;50.774;12.918;2024-01-11T08:02:26;36.60;;;21.40;;
7013;SDS011;3547;50.774;12.918;2024-01-11T08:04:52;34.33;;;20.10;;
7013;SDS011;3547;50.774;12.918;2024-01-11T08:07:18;35.97;;;20.80;;
7013;SDS011;3547;50.774;12.918;2024-01-11T08:09:45;39.07;;;19.80;;
7013;SDS011;3547;50.774;12.918;2024-01-11T08:12:11;37.50;;;19.13;;
7013;SDS011;3547;50.774;12.918;2024-01-11T08:14:39;42.27;;;20.27;;
7013;SDS011;3547;50.774;12.918;2024-01-11T08:17:07;36.03;;;19.07;;
7013;SDS011;3547;50.774;12.918;2024-01-11T08:19:34;39.63;;;19.20;;
7013;SDS011;3547;50.774;12.918;2024-01-11T08:22:01;37.10;;;20.67;;
7013;SDS011;3547;50.774;12.918;2024-01-11T08:24:27;34.20;;;19.03;;
7013;SDS011;3547;50.774;12.918;2024-01-11T08:26:54;40.40;;;20.57;;
7013;SDS011;3547;50.774;12.918;2024-01-11T08:29:20;36.87;;;20.17;;
7013;SDS011;3547;50.774;12.918;2024-01-11T08:31:47;34.67;;;18.33;;
7013;SDS011;3547;50.774;12.918;2024-01-11T08:34:14;39.70;;;19.77;;
7013;SDS011;3547;50.774;12.918;2024-01-11T08:36:40;36.30;;;19.40;;
7013;SDS011;3547;50.774;12.918;2024-01-11T08:39:06;33.87;;;18.27;;
7013;SDS011;3547;50.774;12.918;2024-01-11T08:41:33;33.80;;;18.07;;
7013;SDS011;3547;50.774;12.918;2024-01-11T08:44:01;45.07;;;23.67;;
7013;SDS011;3547;50.774;12.918;2024-01-11T08:46:28;38.50;;;21.33;;
7013;SDS011;3547;50.774;12.918;2024-01-11T08:48:56;44.17;;;24.03;;
7013;SDS011;3547;50.774;12.918;2024-01-11T08:51:22;41.93;;;22.67;;
7013;SDS011;3547;50.774;12.918;2024-01-11T08:53:48;33.07;;;19.63;;
7013;SDS011;3547;50.774;12.918;2024-01-11T08:56:14;43.00;;;21.63;;
7013;SDS011;3547;50.774;12.918;2024-01-11T08:58:42;37.20;;;19.40;;
7013;SDS011;3547;50.774;12.918;2024-01-11T09:01:08;30.83;;;17.47;;
7013;SDS011;3547;50.774;12.918;2024-01-11T09:03:38;33.23;;;17.17;;
7013;SDS011;3547;50.774;12.918;2024-01-11T09:06:04;29.50;;;17.57;;
7013;SDS011;3547;50.774;12.918;2024-01-11T09:08:30;36.50;;;19.27;;
7013;SDS011;3547;50.774;12.918;2024-01-11T09:10:57;41.73;;;23.37;;
7013;SDS011;3547;50.774;12.918;2024-01-11T09:13:24;38.83;;;21.40;;
7013;SDS011;3547;50.774;12.918;2024-01-11T09:15:51;43.30;;;23.10;;
7013;SDS011;3547;50.774;12.918;2024-01-11T09:18:18;37.17;;;20.17;;
7013;SDS011;3547;50.774;12.918;2024-01-11T09:20:45;38.17;;;20.37;;
7013;SDS011;3547;50.774;12.918;2024-01-11T09:23:13;41.03;;;22.23;;
7013;SDS011;3547;50.774;12.918;2024-01-11T09:25:39;33.90;;;19.40;;
7013;SDS011;3547;50.774;12.918;2024-01-11T09:28:05;30.83;;;18.13;;
7013;SDS011;3547;50.774;12.918;2024-01-11T09:30:31;33.83;;;18.43;;
7013;SDS011;3547;50.774;12.918;2024-01-11T09:32:58;37.57;;;18.90;;
7013;SDS011;3547;50.774;12.918;2024-01-11T09:35:24;30.57;;;17.17;;
7013;SDS011;3547;50.774;12.918;2024-01-11T09:37:50;31.83;;;16.80;;
7013;SDS011;3547;50.774;12.918;2024-01-11T09:40:17;30.17;;;16.83;;
7013;SDS011;3547;50.774;12.918;2024-01-11T09:42:43;26.67;;;15.37;;
7013;SDS011;3547;50.774;12.918;2024-01-11T09:45:13;30.53;;;16.00;;
7013;SDS011;3547;50.774;12.918;2024-01-11T09:47:41;29.13;;;16.47;;
7013;SDS011;3547;50.774;12.918;2024-01-11T09:50:10;26.30;;;15.77;;
7013;SDS011;3547;50.774;12.918;2024-01-11T09:52:41;26.50;;;15.33;;
7013;SDS011;3547;50.774;12.918;2024-01-11T09:55:08;24.43;;;15.23;;
7013;SDS011;3547;50.774;12.918;2024-01-11T09:57:34;28.73;;;16.03;;
7013;SDS011;3547;50.774;12.918;2024-01-11T10:00:03;24.83;;;14.53;;
7013;SDS011;3547;50.774;12.918;2024-01-11T10:02:33;27.80;;;14.83;;
7013;SDS011;3547;50.774;12.918;2024-01-11T10:04:59;24.37;;;13.53;;
7013;SDS011;3547;50.774;12.918;2024-01-11T10:07:25;25.70;;;13.50;;
7013;SDS011;3547;50.774;12.918;2024-01-11T10:09:52;23.60;;;13.40;;
7013;SDS011;3547;50.774;12.918;2024-01-11T10:12:18;22.83;;;13.63;;
7013;SDS011;3547;50.774;12.918;2024-01-11T10:14:48;20.73;;;13.10;;
7013;SDS011;3547;50.774;12.918;2024-01-11T10:17:15;21.60;;;13.30;;
7013;SDS011;3547;50.774;12.918;2024-01-11T10:19:41;18.67;;;12.87;;
7013;SDS011;3547;50.774;12.918;2024-01-11T10:22:08;26.10;;;12.70;;
7013;SDS011;3547;50.774;12.918;2024-01-11T10:24:41;19.83;;;11.30;;
7013;SDS011;3547;50.774;12.918;2024-01-11T10:27:08;18.97;;;11.83;;
7013;SDS011;3547;50.774;12.918;2024-01-11T10:29:35;20.53;;;12.07;;
7013;SDS011;3547;50.774;12.918;2024-01-11T10:32:05;20.40;;;11.80;;
7013;SDS011;3547;50.774;12.918;2024-01-11T10:34:31;20.37;;;11.93;;
7013;SDS011;3547;50.774;12.918;2024-01-11T10:36:58;16.73;;;10.67;;
7013;SDS011;3547;50.774;12.918;2024-01-11T10:39:25;18.33;;;10.83;;
7013;SDS011;3547;50.774;12.918;2024-01-11T10:42:03;21.83;;;12.40;;
7013;SDS011;3547;50.774;12.918;2024-01-11T10:44:32;20.90;;;12.10;;
7013;SDS011;3547;50.774;12.918;2024-01-11T10:46:59;22.60;;;12.10;;
7013;SDS011;3547;50.774;12.918;2024-01-11T10:49:29;18.97;;;11.40;;
7013;SDS011;3547;50.774;12.918;2024-01-11T10:51:59;21.93;;;11.30;;
7013;SDS011;3547;50.774;12.918;2024-01-11T10:54:27;17.17;;;10.73;;
7013;SDS011;3547;50.774;12.918;2024-01-11T10:56:56;16.67;;;9.23;;
7013;SDS011;3547;50.774;12.918;2024-01-11T10:59:26;15.47;;;9.83;;
7013;SDS011;3547;50.774;12.918;2024-01-11T11:01:53;17.70;;;9.57;;
7013;SDS011;3547;50.774;12.918;2024-01-11T11:04:22;14.63;;;8.53;;
7013;SDS011;3547;50.774;12.918;2024-01-11T11:06:49;14.03;;;8.10;;
7013;SDS011;3547;50.774;12.918;2024-01-11T11:09:27;16.33;;;9.67;;
7013;SDS011;3547;50.774;12.918;2024-01-11T11:11:56;17.53;;;10.37;;
7013;SDS011;3547;50.774;12.918;2024-01-11T11:14:24;13.83;;;9.33;;
7013;SDS011;3547;50.774;12.918;2024-01-11T11:16:51;15.17;;;9.87;;
7013;SDS011;3547;50.774;12.918;2024-01-11T11:19:21;14.20;;;8.93;;
7013;SDS011;3547;50.774;12.918;2024-01-11T11:21:48;17.77;;;9.90;;
7013;SDS011;3547;50.774;12.918;2024-01-11T11:24:16;16.90;;;9.23;;
7013;SDS011;3547;50.774;12.918;2024-01-11T11:26:42;17.97;;;9.27;;
7013;SDS011;3547;50.774;12.918;2024-01-11T11:29:09;20.30;;;11.10;;
7013;SDS011;3547;50.774;12.918;2024-01-11T11:31:41;17.93;;;10.00;;
7013;SDS011;3547;50.774;12.918;2024-01-11T11:34:12;15.43;;;9.70;;
7013;SDS011;3547;50.774;12.918;2024-01-11T11:36:42;15.40;;;9.43;;
7013;SDS011;3547;50.774;12.918;2024-01-11T11:39:11;13.27;;;8.33;;
7013;SDS011;3547;50.774;12.918;2024-01-11T11:41:39;16.40;;;8.73;;
7013;SDS011;3547;50.774;12.918;2024-01-11T11:44:07;16.27;;;9.50;;
7013;SDS011;3547;50.774;12.918;2024-01-11T11:46:38;17.23;;;10.13;;
7013;SDS011;3547;50.774;12.918;2024-01-11T11:49:04;14.43;;;9.70;;
7013;SDS011;3547;50.774;12.918;2024-01-11T11:51:30;14.60;;;9.13;;
7013;SDS011;3547;50.774;12.918;2024-01-11T11:54:00;15.07;;;9.60;;
7013;SDS011;3547;50.774;12.918;2024-01-11T11:56:28;14.27;;;9.03;;
7013;SDS011;3547;50.774;12.918;2024-01-11T11:58:54;20.00;;;11.40;;
7013;SDS011;3547;50.774;12.918;2024-01-11T12:01:20;16.93;;;10.00;;
7013;SDS011;3547;50.774;12.918;2024-01-11T12:03:47;16.17;;;9.77;;
7013;SDS011;3547;50.774;12.918;2024-01-11T12:06:16;16.20;;;9.80;;
7013;SDS011;3547;50.774;12.918;2024-01-11T12:08:44;18.43;;;10.33;;
7013;SDS011;3547;50.774;12.918;2024-01-11T12:11:15;16.77;;;8.87;;
7013;SDS011;3547;50.774;12.918;2024-01-11T12:13:45;18.00;;;9.97;;
7013;SDS011;3547;50.774;12.918;2024-01-11T12:16:15;15.73;;;9.80;;
7013;SDS011;3547;50.774;12.918;2024-01-11T12:18:41;17.40;;;9.23;;
7013;SDS011;3547;50.774;12.918;2024-01-11T12:21:08;19.67;;;11.03;;
7013;SDS011;3547;50.774;12.918;2024-01-11T12:23:34;16.67;;;10.00;;
7013;SDS011;3547;50.774;12.918;2024-01-11T12:26:02;19.67;;;11.00;;
7013;SDS011;3547;50.774;12.918;2024-01-11T12:28:31;16.77;;;9.73;;
7013;SDS011;3547;50.774;12.918;2024-01-11T12:30:58;16.23;;;9.90;;
7013;SDS011;3547;50.774;12.918;2024-01-11T12:33:25;22.03;;;11.47;;
7013;SDS011;3547;50.774;12.918;2024-01-11T12:35:52;21.30;;;10.40;;
7013;SDS011;3547;50.774;12.918;2024-01-11T12:38:19;18.23;;;10.87;;
7013;SDS011;3547;50.774;12.918;2024-01-11T12:40:45;20.10;;;11.57;;
7013;SDS011;3547;50.774;12.918;2024-01-11T12:43:12;18.43;;;10.47;;
7013;SDS011;3547;50.774;12.918;2024-01-11T12:45:39;21.80;;;11.40;;
7013;SDS011;3547;50.774;12.918;2024-01-11T12:48:09;23.33;;;12.17;;
7013;SDS011;3547;50.774;12.918;2024-01-11T12:50:35;22.77;;;11.93;;
7013;SDS011;3547;50.774;12.918;2024-01-11T12:55:33;23.83;;;13.47;;
7013;SDS011;3547;50.774;12.918;2024-01-11T12:58:06;27.70;;;13.23;;
7013;SDS011;3547;50.774;12.918;2024-01-11T13:00:38;25.13;;;13.17;;
7013;SDS011;3547;50.774;12.918;2024-01-11T13:03:04;23.40;;;13.93;;
7013;SDS011;3547;50.774;12.918;2024-01-11T13:05:40;19.57;;;13.43;;
7013;SDS011;3547;50.774;12.918;2024-01-11T13:08:09;19.70;;;10.87;;
7013;SDS011;3547;50.774;12.918;2024-01-11T13:10:36;23.30;;;11.33;;
7013;SDS011;3547;50.774;12.918;2024-01-11T13:13:03;22.43;;;12.40;;
7013;SDS011;3547;50.774;12.918;2024-01-11T13:15:30;15.03;;;9.27;;
7013;SDS011;3547;50.774;12.918;2024-01-11T13:17:59;18.87;;;11.30;;
7013;SDS011;3547;50.774;12.918;2024-01-11T13:20:27;21.93;;;11.97;;
7013;SDS011;3547;50.774;12.918;2024-01-11T13:23:15;21.57;;;12.37;;
7013;SDS011;3547;50.774;12.918;2024-01-11T13:25:45;20.37;;;10.97;;
7013;SDS011;3547;50.774;12.918;2024-01-11T13:28:12;18.80;;;10.70;;
7013;SDS011;3547;50.774;12.918;2024-01-11T13:30:39;19.77;;;11.27;;
7013;SDS011;3547;50.774;12.918;2024-01-11T13:33:09;19.33;;;10.67;;
7013;SDS011;3547;50.774;12.918;2024-01-11T13:35:39;23.47;;;10.97;;
7013;SDS011;3547;50.774;12.918;2024-01-11T13:38:06;12.40;;;7.93;;
7013;SDS011;3547;50.774;12.918;2024-01-11T13:40:33;18.73;;;9.17;;
7013;SDS011;3547;50.774;12.918;2024-01-11T13:42:59;15.60;;;8.27;;
7013;SDS011;3547;50.774;12.918;2024-01-11T13:45:27;16.57;;;9.73;;
7013;SDS011;3547;50.774;12.918;2024-01-11T13:47:55;14.73;;;8.07;;
7013;SDS011;3547;50.774;12.918;2024-01-11T13:50:21;17.30;;;9.77;;
7013;SDS011;3547;50.774;12.918;2024-01-11T13:52:51;14.77;;;9.07;;
7013;SDS011;3547;50.774;12.918;2024-01-11T13:55:18;14.27;;;8.40;;
7013;SDS011;3547;50.774;12.918;2024-01-11T13:57:46;16.27;;;8.93;;
7013;SDS011;3547;50.774;12.918;2024-01-11T14:00:13;14.57;;;8.57;;
7013;SDS011;3547;50.774;12.918;2024-01-11T14:02:40;13.47;;;8.27;;
7013;SDS011;3547;50.774;12.918;2024-01-11T14:05:07;19.37;;;8.57;;
7013;SDS011;3547;50.774;12.918;2024-01-11T14:07:37;17.57;;;9.00;;
7013;SDS011;3547;50.774;12.918;2024-01-11T14:10:06;13.93;;;7.97;;
7013;SDS011;3547;50.774;12.918;2024-01-11T14:12:37;16.97;;;9.00;;
7013;SDS011;3547;50.774;12.918;2024-01-11T14:15:03;17.50;;;9.93;;
7013;SDS011;3547;50.774;12.918;2024-01-11T14:17:32;16.53;;;9.47;;
7013;SDS011;3547;50.774;12.918;2024-01-11T14:19:59;18.13;;;8.87;;
7013;SDS011;3547;50.774;12.918;2024-01-11T14:22:26;13.07;;;8.77;;
7013;SDS011;3547;50.774;12.918;2024-01-11T14:24:52;17.13;;;9.97;;
7013;SDS011;3547;50.774;12.918;2024-01-11T14:27:22;19.33;;;10.47;;
7013;SDS011;3547;50.774;12.918;2024-01-11T14:29:49;17.17;;;9.53;;
7013;SDS011;3547;50.774;12.918;2024-01-11T14:32:15;17.17;;;9.20;;
7013;SDS011;3547;50.774;12.918;2024-01-11T14:34:42;18.27;;;10.03;;
7013;SDS011;3547;50.774;12.918;2024-01-11T14:37:10;17.57;;;9.20;;
7013;SDS011;3547;50.774;12.918;2024-01-11T14:39:37;20.17;;;9.83;;
7013;SDS011;3547;50.774;12.918;2024-01-11T14:42:03;19.47;;;10.17;;